createdAt,value
2018-01-12T00:01:28.449Z,12.53
2018-01-12T00:03:56.044Z,13.73
2018-01-12T00:06:23.745Z,12.57
2018-01-12T00:08:51.332Z,12.90
2018-01-12T00:11:18.962Z,12.10
2018-01-12T00:13:46.561Z,12.83
2018-01-12T00:16:14.298Z,12.20
2018-01-12T00:18:41.906Z,10.93
2018-01-12T00:21:09.494Z,10.93
2018-01-12T00:23:37.863Z,12.87
2018-01-12T00:26:05.453Z,12.47
2018-01-12T00:28:33.065Z,12.60
2018-01-12T00:31:00.653Z,11.60
2018-01-12T00:33:28.332Z,11.17
2018-01-12T00:35:55.929Z,11.20
2018-01-12T00:38:23.537Z,11.00
2018-01-12T00:40:51.900Z,12.37
2018-01-12T00:43:19.708Z,11.80
2018-01-12T00:45:47.301Z,12.27
2018-01-12T00:48:14.895Z,12.33
2018-01-12T00:50:43.293Z,12.53
2018-01-12T00:53:10.870Z,13.10
2018-01-12T00:55:38.473Z,11.87
2018-01-12T00:58:06.063Z,12.03
2018-01-12T01:00:34.442Z,13.57
2018-01-12T01:03:02.038Z,11.93
2018-01-12T01:05:29.630Z,12.83
2018-01-12T01:07:57.228Z,12.60
2018-01-12T01:10:24.849Z,12.50
2018-01-12T01:12:52.445Z,12.83
2018-01-12T01:15:20.079Z,12.37
2018-01-12T01:17:47.649Z,12.70
2018-01-12T01:20:16.017Z,11.90
2018-01-12T01:22:43.601Z,12.33
2018-01-12T01:25:11.954Z,12.53
2018-01-12T01:27:39.545Z,11.90
2018-01-12T01:30:07.147Z,12.00
2018-01-12T01:32:34.830Z,12.10
2018-01-12T01:35:02.417Z,12.47
2018-01-12T01:37:30.788Z,12.23
2018-01-12T01:39:59.124Z,12.00
2018-01-12T01:42:27.493Z,13.40
2018-01-12T01:44:55.084Z,12.90
2018-01-12T01:47:22.694Z,13.10
2018-01-12T01:49:50.266Z,12.60
2018-01-12T01:52:17.885Z,13.20
2018-01-12T01:54:46.239Z,13.17
2018-01-12T01:57:13.846Z,13.07
2018-01-12T01:59:41.436Z,12.40
2018-01-12T02:02:09.049Z,13.23
2018-01-12T02:04:37.410Z,13.73
2018-01-12T02:07:05.060Z,13.13
2018-01-12T02:09:32.661Z,12.60
2018-01-12T02:12:00.262Z,14.27
2018-01-12T02:14:28.149Z,14.83
2018-01-12T02:16:55.754Z,14.47
2018-01-12T02:19:23.329Z,14.30
2018-01-12T02:21:50.928Z,15.50
2018-01-12T02:24:18.511Z,15.03
2018-01-12T02:26:46.857Z,14.87
2018-01-12T02:29:14.465Z,15.07
2018-01-12T02:31:42.825Z,16.47
2018-01-12T02:34:11.196Z,15.17
2018-01-12T02:36:38.781Z,17.33
2018-01-12T02:39:07.149Z,16.10
2018-01-12T02:41:35.517Z,16.90
2018-01-12T02:44:03.257Z,16.03
2018-01-12T02:46:30.854Z,16.23
2018-01-12T02:48:59.237Z,16.50
2018-01-12T02:51:27.606Z,17.57
2018-01-12T02:53:55.258Z,16.97
2018-01-12T02:56:23.606Z,16.43
2018-01-12T02:58:51.242Z,16.87
2018-01-12T03:01:18.852Z,16.67
2018-01-12T03:03:46.429Z,16.87
2018-01-12T03:06:14.804Z,16.50
2018-01-12T03:08:43.177Z,18.30
2018-01-12T03:11:11.555Z,17.63
2018-01-12T03:13:39.930Z,16.60
2018-01-12T03:16:07.510Z,15.57
2018-01-12T03:18:35.195Z,15.37
2018-01-12T03:21:02.796Z,15.57
2018-01-12T03:23:30.393Z,15.87
2018-01-12T03:25:58.744Z,16.87
2018-01-12T03:28:26.358Z,17.23
2018-01-12T03:30:53.945Z,16.80
2018-01-12T03:33:21.565Z,17.27
2018-01-12T03:35:49.182Z,18.67
2018-01-12T03:38:16.836Z,16.47
2018-01-12T03:40:44.429Z,17.07
2018-01-12T03:43:12.769Z,17.00
2018-01-12T03:45:40.369Z,18.60
2018-01-12T03:48:08.789Z,18.00
2018-01-12T03:50:36.399Z,17.03
2018-01-12T03:53:04.765Z,17.73
2018-01-12T03:55:32.372Z,17.43
2018-01-12T03:57:59.979Z,17.17
2018-01-12T04:00:27.679Z,18.23
2018-01-12T04:02:55.260Z,18.13
2018-01-12T04:05:22.859Z,17.67
2018-01-12T04:07:50.529Z,17.13
2018-01-12T04:10:18.184Z,16.63
2018-01-12T04:12:45.779Z,16.00
2018-01-12T04:15:14.140Z,12.93
2018-01-12T04:17:41.725Z,13.77
2018-01-12T04:20:09.322Z,14.97
2018-01-12T04:22:36.941Z,15.07
2018-01-12T04:25:04.546Z,14.40
2018-01-12T04:27:32.120Z,13.33
2018-01-12T04:29:59.724Z,14.13
2018-01-12T04:32:27.302Z,15.13
2018-01-12T04:34:54.905Z,17.37
2018-01-12T04:37:22.498Z,15.90
2018-01-12T04:39:50.889Z,16.37
2018-01-12T04:42:18.497Z,16.73
2018-01-12T04:44:46.109Z,20.27
2018-01-12T04:47:13.712Z,19.53
2018-01-12T04:49:41.304Z,15.57
2018-01-12T04:52:10.801Z,20.33
2018-01-12T04:54:38.437Z,15.77
2018-01-12T04:57:06.039Z,14.87
2018-01-12T04:59:34.402Z,15.87
2018-01-12T05:02:02.099Z,15.23
2018-01-12T05:04:29.678Z,14.93
2018-01-12T05:06:57.298Z,16.90
2018-01-12T05:09:25.654Z,16.17
2018-01-12T05:11:53.257Z,15.20
2018-01-12T05:14:20.838Z,14.87
2018-01-12T05:16:48.436Z,16.90
2018-01-12T05:19:16.025Z,16.43
2018-01-12T05:21:43.630Z,16.57
2018-01-12T05:24:11.204Z,15.07
2018-01-12T05:26:38.804Z,15.47
2018-01-12T05:29:07.233Z,16.43
2018-01-12T05:31:34.813Z,17.20
2018-01-12T05:34:02.444Z,15.60
2018-01-12T05:36:30.048Z,15.60
2018-01-12T05:38:58.406Z,17.03
2018-01-12T05:41:25.987Z,16.60
2018-01-12T05:43:54.349Z,16.20
2018-01-12T05:46:21.947Z,16.50
2018-01-12T05:48:49.931Z,17.33
2018-01-12T05:51:17.509Z,16.67
2018-01-12T05:53:45.116Z,17.20
2018-01-12T05:56:13.473Z,18.37
2018-01-12T05:58:41.098Z,18.90
2018-01-12T06:01:20.478Z,15.27
2018-01-12T06:03:59.938Z,17.03
2018-01-12T06:06:28.318Z,16.93
2018-01-12T06:08:56.696Z,16.73
2018-01-12T06:11:26.402Z,19.47
2018-01-12T06:13:54.751Z,17.57
2018-01-12T06:16:22.372Z,18.90
2018-01-12T06:18:49.957Z,17.23
2018-01-12T06:21:17.578Z,19.20
2018-01-12T06:23:45.162Z,18.57
2018-01-12T06:26:12.767Z,18.63
2018-01-12T06:28:40.376Z,17.97
2018-01-12T06:31:07.954Z,31.00
2018-01-12T06:33:35.597Z,22.17
2018-01-12T06:36:03.202Z,27.33
2018-01-12T06:38:30.790Z,23.93
2018-01-12T06:40:59.155Z,19.23
2018-01-12T06:43:27.509Z,18.27
2018-01-12T06:45:55.113Z,18.37
2018-01-12T06:48:22.716Z,18.13
2018-01-12T06:50:50.300Z,17.43
2018-01-12T06:53:17.917Z,17.57
2018-01-12T06:55:45.523Z,18.30
2018-01-12T06:58:13.131Z,18.47
2018-01-12T07:00:40.714Z,17.07
2018-01-12T07:03:08.325Z,16.97
2018-01-12T07:05:36.691Z,19.57
2018-01-12T07:08:05.057Z,16.93
2018-01-12T07:10:32.718Z,17.13
2018-01-12T07:13:00.314Z,18.97
2018-01-12T07:15:27.916Z,18.23
2018-01-12T07:17:55.618Z,18.57
2018-01-12T07:20:35.927Z,18.17
2018-01-12T07:23:15.278Z,19.20
2018-01-12T07:25:42.903Z,20.03
2018-01-12T07:28:10.498Z,18.07
2018-01-12T07:30:38.097Z,16.93
2018-01-12T07:33:06.456Z,17.33
2018-01-12T07:35:34.176Z,16.60
2018-01-12T07:38:01.766Z,18.93
2018-01-12T07:40:29.381Z,18.33
2018-01-12T07:42:57.040Z,21.33
2018-01-12T07:45:24.609Z,19.50
2018-01-12T07:47:52.274Z,21.40
2018-01-12T07:50:19.872Z,22.10
2018-01-12T07:52:52.997Z,22.47
2018-01-12T07:55:21.347Z,22.43
2018-01-12T07:57:49.133Z,22.13
2018-01-12T08:00:17.477Z,21.60
2018-01-12T08:02:50.807Z,58.83
2018-01-12T08:05:19.159Z,30.07
2018-01-12T08:07:46.757Z,22.57
2018-01-12T08:10:15.136Z,23.60
2018-01-12T08:12:42.768Z,22.07
2018-01-12T08:15:10.349Z,26.80
2018-01-12T08:17:38.704Z,21.80
2018-01-12T08:20:06.321Z,24.27
2018-01-12T08:22:33.933Z,22.67
2018-01-12T08:25:01.524Z,21.57
2018-01-12T08:27:29.112Z,22.90
2018-01-12T08:29:56.969Z,22.13
2018-01-12T08:32:24.650Z,22.50
2018-01-12T08:34:52.422Z,20.70
2018-01-12T08:37:20.010Z,20.37
2018-01-12T08:39:48.824Z,22.47
2018-01-12T08:42:16.415Z,22.87
2018-01-12T08:44:44.090Z,22.90
2018-01-12T08:47:11.689Z,22.93
2018-01-12T08:49:40.063Z,21.10
2018-01-12T08:52:08.413Z,20.97
2018-01-12T08:54:36.153Z,21.37
2018-01-12T08:57:03.840Z,20.87
2018-01-12T08:59:31.786Z,21.33
2018-01-12T09:01:59.368Z,20.83
2018-01-12T09:04:27.232Z,21.70
2018-01-12T09:06:54.825Z,22.57
2018-01-12T09:09:23.264Z,22.43
2018-01-12T09:11:50.869Z,22.70
2018-01-12T09:14:31.157Z,21.63
2018-01-12T09:16:58.765Z,21.83
2018-01-12T09:19:40.090Z,22.50
2018-01-12T09:22:09.693Z,23.40
2018-01-12T09:24:44.213Z,22.53
2018-01-12T09:27:11.821Z,22.90
2018-01-12T09:29:39.416Z,22.13
2018-01-12T09:32:14.569Z,23.43
2018-01-12T09:35:00.697Z,22.60
2018-01-12T09:37:29.100Z,24.43
2018-01-12T09:40:08.491Z,25.37
2018-01-12T09:42:36.102Z,23.70
2018-01-12T09:45:03.701Z,26.83
2018-01-12T09:47:42.829Z,24.93
2018-01-12T09:50:10.464Z,24.60
2018-01-12T09:52:38.049Z,24.30
2018-01-12T09:55:05.648Z,23.33
2018-01-12T09:57:33.248Z,23.57
2018-01-12T10:00:01.674Z,24.80
2018-01-12T10:02:29.297Z,23.23
2018-01-12T10:04:57.678Z,22.60
2018-01-12T10:07:37.941Z,22.63
2018-01-12T10:10:09.297Z,27.37
2018-01-12T10:12:37.712Z,23.87
2018-01-12T10:15:05.331Z,25.10
2018-01-12T10:17:32.924Z,24.80
2018-01-12T10:20:15.357Z,24.03
2018-01-12T10:22:42.940Z,41.10
2018-01-12T10:25:11.324Z,32.17
2018-01-12T10:27:39.683Z,25.03
2018-01-12T10:30:28.089Z,22.80
2018-01-12T10:33:03.618Z,24.33
2018-01-12T10:35:31.993Z,23.27
2018-01-12T10:37:59.569Z,24.50
2018-01-12T10:40:47.696Z,23.63
2018-01-12T10:43:16.214Z,21.67
2018-01-12T10:45:55.758Z,24.70
2018-01-12T10:48:32.001Z,26.27
2018-01-12T10:51:11.431Z,24.53
2018-01-12T10:53:39.015Z,24.07
2018-01-12T10:56:06.596Z,23.77
2018-01-12T10:58:34.204Z,26.23
2018-01-12T11:01:01.767Z,22.90
2018-01-12T11:03:29.365Z,23.83
2018-01-12T11:05:56.953Z,24.20
2018-01-12T11:08:25.360Z,25.43
2018-01-12T11:10:52.940Z,24.50
2018-01-12T11:13:20.530Z,24.70
2018-01-12T11:15:48.108Z,25.93
2018-01-12T11:18:15.722Z,25.37
2018-01-12T11:20:43.297Z,24.43
2018-01-12T11:23:10.921Z,25.90
2018-01-12T11:25:38.580Z,24.57
2018-01-12T11:28:06.176Z,22.97
2018-01-12T11:30:33.800Z,21.30
2018-01-12T11:33:01.406Z,23.17
2018-01-12T11:35:29.008Z,23.40
2018-01-12T11:37:57.356Z,23.37
2018-01-12T11:40:25.030Z,24.23
2018-01-12T11:42:52.608Z,23.87
2018-01-12T11:45:20.974Z,24.40
2018-01-12T11:47:49.329Z,22.63
2018-01-12T11:50:16.937Z,25.30
2018-01-12T11:52:44.523Z,26.87
2018-01-12T11:55:12.133Z,24.63
2018-01-12T11:57:40.489Z,27.10
2018-01-12T12:00:08.121Z,24.97
2018-01-12T12:02:35.764Z,23.40
2018-01-12T12:05:03.353Z,26.40
2018-01-12T12:07:30.953Z,22.03
2018-01-12T12:09:59.319Z,24.17
2018-01-12T12:12:26.937Z,29.43
2018-01-12T12:14:54.518Z,29.33
2018-01-12T12:17:22.118Z,27.33
2018-01-12T12:19:50.472Z,27.13
2018-01-12T12:22:18.074Z,25.97
2018-01-12T12:24:45.753Z,25.27
2018-01-12T12:27:13.382Z,25.07
2018-01-12T12:29:41.722Z,26.27
2018-01-12T12:32:09.328Z,24.90
2018-01-12T12:34:37.729Z,26.97
2018-01-12T12:37:05.344Z,25.00
2018-01-12T12:39:32.941Z,24.40
2018-01-12T12:42:00.598Z,30.53
2018-01-12T12:44:28.193Z,29.13
2018-01-12T12:46:55.817Z,30.53
2018-01-12T12:49:23.408Z,25.83
2018-01-12T12:51:51.057Z,29.87
2018-01-12T12:54:18.692Z,28.80
2018-01-12T12:56:47.090Z,26.63
2018-01-12T12:59:14.693Z,27.30
2018-01-12T13:01:42.352Z,26.80
2018-01-12T13:04:09.988Z,37.43
2018-01-12T13:06:37.624Z,40.40
2018-01-12T13:09:05.221Z,29.40
2018-01-12T13:11:32.814Z,26.60
2018-01-12T13:14:01.200Z,25.87
2018-01-12T13:16:31.158Z,27.50
2018-01-12T13:18:58.777Z,27.07
2018-01-12T13:21:27.154Z,28.77
2018-01-12T13:23:54.771Z,26.37
2018-01-12T13:26:22.368Z,26.23
2018-01-12T13:28:50.283Z,25.67
2018-01-12T13:31:17.913Z,26.13
2018-01-12T13:33:46.265Z,24.80
2018-01-12T13:36:13.854Z,23.10
2018-01-12T13:38:42.226Z,23.93
2018-01-12T13:41:10.573Z,24.67
2018-01-12T13:43:38.198Z,26.17
2018-01-12T13:46:05.832Z,24.60
2018-01-12T13:48:34.197Z,25.07
2018-01-12T13:51:01.795Z,23.17
2018-01-12T13:53:29.400Z,23.47
2018-01-12T13:55:57.000Z,23.97
2018-01-12T13:58:24.601Z,23.40
2018-01-12T14:00:52.978Z,23.57
2018-01-12T14:03:20.571Z,23.23
2018-01-12T14:05:48.986Z,23.17
2018-01-12T14:08:16.573Z,23.80
2018-01-12T14:10:44.188Z,23.70
2018-01-12T14:13:12.544Z,24.27
2018-01-12T14:15:40.478Z,24.53
2018-01-12T14:18:08.062Z,22.90
2018-01-12T14:20:35.674Z,23.93
2018-01-12T14:23:03.265Z,24.47
2018-01-12T14:25:30.865Z,22.23
2018-01-12T14:27:59.242Z,23.70
2018-01-12T14:30:27.626Z,29.37
2018-01-12T14:32:56.053Z,58.17
2018-01-12T14:35:24.514Z,37.20
2018-01-12T14:37:52.204Z,23.90
2018-01-12T14:40:19.850Z,23.93
2018-01-12T14:42:47.460Z,23.40
2018-01-12T14:45:15.060Z,22.37
2018-01-12T14:47:42.665Z,22.33
2018-01-12T14:50:10.241Z,23.70
2018-01-12T14:52:37.837Z,24.50
2018-01-12T14:55:05.440Z,24.03
2018-01-12T14:57:33.029Z,22.93
2018-01-12T15:00:04.993Z,22.17
2018-01-12T15:02:33.889Z,22.83
2018-01-12T15:05:02.257Z,24.27
2018-01-12T15:07:30.793Z,24.00
2018-01-12T15:09:58.401Z,23.53
2018-01-12T15:12:26.752Z,23.30
2018-01-12T15:14:54.387Z,22.77
2018-01-12T15:17:21.988Z,24.57
2018-01-12T15:19:49.597Z,22.87
2018-01-12T15:22:17.188Z,28.33
2018-01-12T15:24:45.562Z,24.17
2018-01-12T15:27:13.166Z,24.60
2018-01-12T15:29:41.534Z,22.70
2018-01-12T15:32:09.113Z,21.93
2018-01-12T15:34:36.721Z,21.77
2018-01-12T15:37:04.302Z,21.27
2018-01-12T15:39:31.930Z,21.87
2018-01-12T15:41:59.521Z,22.83
2018-01-12T15:44:27.148Z,23.73
2018-01-12T15:46:54.830Z,21.77
2018-01-12T15:49:22.429Z,23.17
2018-01-12T15:51:50.811Z,23.80
2018-01-12T15:54:19.192Z,22.73
2018-01-12T15:56:47.572Z,22.77
2018-01-12T15:59:15.949Z,21.73
2018-01-12T16:01:44.326Z,22.43
2018-01-12T16:04:12.689Z,22.73
2018-01-12T16:06:40.326Z,21.87
2018-01-12T16:09:07.912Z,20.90
2018-01-12T16:11:35.525Z,21.50
2018-01-12T16:14:03.096Z,21.17
2018-01-12T16:16:30.704Z,23.40
2018-01-12T16:18:59.058Z,20.83
2018-01-12T16:21:26.649Z,22.37
2018-01-12T16:23:54.377Z,22.47
2018-01-12T16:26:22.006Z,23.43
2018-01-12T16:28:49.617Z,27.33
2018-01-12T16:31:18.009Z,36.23
2018-01-12T16:33:46.393Z,28.13
2018-01-12T16:36:14.758Z,28.93
2018-01-12T16:38:43.138Z,36.27
2018-01-12T16:41:11.503Z,26.63
2018-01-12T16:43:39.102Z,22.83
2018-01-12T16:46:06.691Z,22.47
2018-01-12T16:48:34.309Z,21.53
2018-01-12T16:51:01.920Z,22.33
2018-01-12T16:53:29.530Z,22.57
2018-01-12T16:55:57.874Z,23.67
2018-01-12T16:58:25.465Z,20.80
2018-01-12T17:00:53.842Z,23.13
2018-01-12T17:03:22.192Z,24.77
2018-01-12T17:05:49.813Z,25.10
2018-01-12T17:08:17.393Z,23.13
2018-01-12T17:10:45.012Z,22.80
2018-01-12T17:13:12.598Z,22.57
2018-01-12T17:15:40.217Z,23.40
2018-01-12T17:18:08.593Z,23.57
2018-01-12T17:20:36.969Z,24.43
2018-01-12T17:23:05.350Z,24.10
2018-01-12T17:25:33.766Z,23.33
2018-01-12T17:28:01.387Z,25.33
2018-01-12T17:30:29.762Z,23.17
2018-01-12T17:32:58.202Z,23.47
2018-01-12T17:35:25.864Z,23.87
2018-01-12T17:37:53.473Z,22.77
2018-01-12T17:40:21.836Z,24.60
2018-01-12T17:42:49.521Z,22.03
2018-01-12T17:45:17.881Z,23.00
2018-01-12T17:47:46.248Z,23.67
2018-01-12T17:50:13.837Z,23.73
2018-01-12T17:52:42.218Z,23.47
2018-01-12T17:55:09.832Z,22.40
2018-01-12T17:57:37.455Z,24.33
2018-01-12T18:00:05.029Z,25.57
2018-01-12T18:02:32.624Z,28.10
2018-01-12T18:05:00.242Z,23.97
2018-01-12T18:07:27.842Z,26.40
2018-01-12T18:09:55.501Z,25.00
2018-01-12T18:12:23.083Z,25.63
2018-01-12T18:14:51.469Z,23.77
2018-01-12T18:17:19.822Z,25.60
2018-01-12T18:19:47.449Z,25.07
2018-01-12T18:22:15.036Z,25.37
2018-01-12T18:24:42.640Z,25.33
2018-01-12T18:27:10.228Z,24.37
2018-01-12T18:29:37.857Z,26.10
2018-01-12T18:32:05.449Z,25.47
2018-01-12T18:34:33.089Z,24.07
2018-01-12T18:37:00.692Z,25.07
2018-01-12T18:39:28.281Z,24.40
2018-01-12T18:41:55.894Z,23.83
2018-01-12T18:44:23.535Z,24.17
2018-01-12T18:46:51.257Z,25.00
2018-01-12T18:49:18.868Z,23.13
2018-01-12T18:51:46.465Z,27.33
2018-01-12T18:54:14.073Z,31.23
2018-01-12T18:56:41.658Z,38.40
2018-01-12T18:59:09.265Z,28.87
2018-01-12T19:01:37.762Z,25.37
2018-01-12T19:04:06.158Z,27.93
2018-01-12T19:06:33.747Z,26.43
2018-01-12T19:09:01.366Z,25.60
2018-01-12T19:11:29.765Z,24.60
2018-01-12T19:13:57.386Z,25.03
2018-01-12T19:16:25.709Z,24.27
2018-01-12T19:18:53.317Z,22.83
2018-01-12T19:21:20.931Z,24.40
2018-01-12T19:23:48.526Z,23.60
2018-01-12T19:26:16.158Z,23.83
2018-01-12T19:28:43.753Z,25.03
2018-01-12T19:31:11.378Z,24.70
2018-01-12T19:33:39.040Z,26.83
2018-01-12T19:36:06.668Z,25.47
2018-01-12T19:38:35.031Z,26.33
2018-01-12T19:41:03.444Z,23.47
2018-01-12T19:43:31.038Z,22.63
2018-01-12T19:45:58.637Z,24.97
2018-01-12T19:48:26.998Z,23.90
2018-01-12T19:50:54.588Z,25.13
2018-01-12T19:53:22.209Z,24.20
2018-01-12T19:55:49.817Z,24.53
2018-01-12T19:58:17.433Z,24.80
2018-01-12T20:00:45.041Z,24.30
2018-01-12T20:03:12.654Z,23.90
2018-01-12T20:05:40.244Z,24.57
2018-01-12T20:08:08.648Z,25.27
2018-01-12T20:10:36.233Z,25.60
2018-01-12T20:13:03.838Z,25.33
2018-01-12T20:15:32.181Z,25.00
2018-01-12T20:17:59.784Z,24.23
2018-01-12T20:20:28.178Z,26.00
2018-01-12T20:22:55.784Z,24.07
2018-01-12T20:25:23.405Z,24.87
2018-01-12T20:27:51.041Z,24.33
2018-01-12T20:30:19.413Z,24.47
2018-01-12T20:32:47.793Z,26.37
2018-01-12T20:35:16.206Z,26.43
2018-01-12T20:37:43.794Z,28.70
2018-01-12T20:40:11.404Z,25.73
2018-01-12T20:42:38.985Z,26.63
2018-01-12T20:45:06.604Z,26.13
2018-01-12T20:47:34.189Z,24.23
2018-01-12T20:50:01.802Z,25.37
2018-01-12T20:52:29.388Z,26.90
2018-01-12T20:54:57.746Z,27.83
2018-01-12T20:57:25.394Z,26.17
2018-01-12T20:59:52.976Z,24.43
2018-01-12T21:02:20.579Z,26.53
2018-01-12T21:04:48.185Z,28.13
2018-01-12T21:07:15.782Z,27.53
2018-01-12T21:09:44.161Z,27.57
2018-01-12T21:12:12.520Z,27.47
2018-01-12T21:14:40.124Z,25.83
2018-01-12T21:17:07.705Z,24.77
2018-01-12T21:19:35.276Z,25.43
2018-01-12T21:22:02.885Z,25.33
2018-01-12T21:24:30.500Z,25.03
2018-01-12T21:26:59.026Z,25.73
2018-01-12T21:29:27.369Z,24.80
2018-01-12T21:31:55.003Z,25.40
2018-01-12T21:34:22.675Z,26.83
2018-01-12T21:36:50.281Z,24.50
2018-01-12T21:39:18.899Z,23.33
2018-01-12T21:41:46.520Z,25.93
2018-01-12T21:44:14.882Z,23.97
2018-01-12T21:46:42.738Z,23.47
2018-01-12T21:49:10.337Z,23.63
2018-01-12T21:51:39.131Z,23.63
2018-01-12T21:54:06.779Z,23.10
2018-01-12T21:56:34.389Z,24.13
2018-01-12T21:59:02.761Z,24.27
2018-01-12T22:01:30.412Z,23.67
2018-01-12T22:03:58.121Z,25.00
2018-01-12T22:06:25.735Z,22.87
2018-01-12T22:08:53.345Z,22.10
2018-01-12T22:11:20.985Z,22.83
2018-01-12T22:13:48.607Z,24.93
2018-01-12T22:16:16.189Z,23.13
2018-01-12T22:18:43.867Z,23.97
2018-01-12T22:21:11.457Z,23.87
2018-01-12T22:23:39.825Z,23.73
2018-01-12T22:26:07.420Z,23.13
2018-01-12T22:28:35.047Z,24.53
2018-01-12T22:31:02.639Z,23.13
2018-01-12T22:33:30.241Z,24.00
2018-01-12T22:35:57.845Z,21.30
2018-01-12T22:38:26.233Z,22.77
2018-01-12T22:40:54.622Z,20.70
2018-01-12T22:43:22.252Z,22.00
2018-01-12T22:45:49.867Z,22.53
2018-01-12T22:48:17.474Z,23.30
2018-01-12T22:50:45.932Z,21.17
2018-01-12T22:53:13.512Z,21.30
2018-01-12T22:55:41.116Z,23.40
2018-01-12T22:58:11.591Z,21.63
2018-01-12T23:00:39.184Z,25.47
2018-01-12T23:03:06.780Z,20.93
2018-01-12T23:05:35.148Z,21.00
2018-01-12T23:08:02.742Z,22.30
2018-01-12T23:10:30.348Z,20.50
2018-01-12T23:12:57.953Z,22.20
2018-01-12T23:15:25.606Z,21.60
2018-01-12T23:17:53.225Z,22.37
2018-01-12T23:20:20.826Z,23.27
2018-01-12T23:22:48.429Z,21.87
2018-01-12T23:25:16.785Z,23.40
2018-01-12T23:27:45.889Z,22.37
2018-01-12T23:30:13.703Z,23.90
2018-01-12T23:32:41.320Z,20.40
2018-01-12T23:35:08.902Z,23.70
2018-01-12T23:37:37.299Z,22.63
2018-01-12T23:40:04.890Z,23.87
2018-01-12T23:42:32.473Z,20.70
2018-01-12T23:45:00.122Z,18.67
2018-01-12T23:47:27.711Z,20.80
2018-01-12T23:49:56.089Z,20.30
2018-01-12T23:52:24.468Z,20.90
2018-01-12T23:54:52.836Z,19.67
2018-01-12T23:57:20.446Z,20.50
2018-01-12T23:59:48.053Z,19.67
